createdAt,value
2023-02-12T00:01:22.737Z,17.13
2023-02-12T00:03:50.345Z,16.55
2023-02-12T00:06:17.573Z,17.50
2023-02-12T00:08:44.774Z,17.42
2023-02-12T00:11:18.744Z,16.05
2023-02-12T00:13:46.447Z,17.10
2023-02-12T00:16:17.845Z,15.45
2023-02-12T00:18:46.159Z,14.32
2023-02-12T00:21:14.237Z,13.25
2023-02-12T00:23:41.520Z,14.88
2023-02-12T00:26:12.732Z,14.07
2023-02-12T00:28:45.702Z,13.95
2023-02-12T00:31:17.384Z,13.52
2023-02-12T00:33:45.473Z,14.52
2023-02-12T00:36:19.551Z,14.15
2023-02-12T00:38:47.970Z,12.77
2023-02-12T00:41:15.578Z,13.23
2023-02-12T00:43:49.774Z,12.35
2023-02-12T00:46:17.851Z,11.95
2023-02-12T00:48:45.247Z,10.40
2023-02-12T00:51:14.239Z,10.77
2023-02-12T00:53:41.499Z,10.43
2023-02-12T00:56:09.016Z,10.98
2023-02-12T00:58:36.186Z,11.18
2023-02-12T01:01:03.699Z,10.00
2023-02-12T01:03:30.814Z,11.33
2023-02-12T01:05:59.731Z,10.55
2023-02-12T01:08:27.346Z,10.15
2023-02-12T01:10:58.409Z,10.70
2023-02-12T01:13:26.331Z,10.50
2023-02-12T01:16:08.217Z,9.90
2023-02-12T01:18:37.294Z,10.55
2023-02-12T01:21:31.501Z,10.50
2023-02-12T01:23:59.844Z,9.18
2023-02-12T01:26:28.611Z,9.98
2023-02-12T01:29:02.137Z,8.83
2023-02-12T01:31:33.152Z,8.50
2023-02-12T01:34:01.435Z,9.25
2023-02-12T01:36:30.786Z,7.28
2023-02-12T01:38:59.235Z,6.88
2023-02-12T01:41:31.331Z,7.87
2023-02-12T01:44:21.174Z,8.40
2023-02-12T01:47:07.101Z,7.63
2023-02-12T01:49:39.520Z,9.07
2023-02-12T01:52:27.790Z,9.00
2023-02-12T01:54:59.455Z,9.60
2023-02-12T01:57:29.287Z,9.30
2023-02-12T01:59:58.157Z,9.50
2023-02-12T02:02:26.490Z,10.05
2023-02-12T02:05:00.129Z,10.63
2023-02-12T02:07:29.024Z,11.27
2023-02-12T02:09:58.385Z,8.90
2023-02-12T02:12:48.083Z,9.15
2023-02-12T02:15:17.604Z,8.63
2023-02-12T02:18:02.106Z,8.70
2023-02-12T02:21:21.552Z,7.37
2023-02-12T02:24:13.091Z,7.32
2023-02-12T02:27:20.198Z,7.05
2023-02-12T02:29:47.302Z,7.07
2023-02-12T02:32:27.661Z,7.78
2023-02-12T02:35:09.532Z,7.57
2023-02-12T02:37:47.815Z,6.97
2023-02-12T02:40:19.154Z,6.20
2023-02-12T02:43:04.735Z,6.88
2023-02-12T02:45:56.954Z,7.13
2023-02-12T02:48:53.942Z,7.33
2023-02-12T02:51:29.483Z,7.47
2023-02-12T02:54:20.232Z,6.50
2023-02-12T02:56:51.392Z,6.60
2023-02-12T02:59:25.775Z,6.78
2023-02-12T03:02:00.282Z,6.87
2023-02-12T03:04:50.047Z,6.63
2023-02-12T03:07:25.782Z,6.95
2023-02-12T03:10:31.637Z,7.43
2023-02-12T03:13:12.089Z,6.65
2023-02-12T03:15:47.603Z,6.77
2023-02-12T03:18:22.667Z,7.68
2023-02-12T03:21:03.295Z,7.25
2023-02-12T03:23:39.670Z,6.15
2023-02-12T03:26:12.940Z,6.45
2023-02-12T03:28:40.807Z,7.17
2023-02-12T03:31:29.514Z,7.82
2023-02-12T03:34:04.674Z,6.95
2023-02-12T03:37:08.904Z,6.90
2023-02-12T03:40:19.839Z,6.57
2023-02-12T03:43:29.077Z,6.47
2023-02-12T03:46:03.755Z,6.93
2023-02-12T03:48:46.969Z,7.05
2023-02-12T03:51:45.292Z,6.88
2023-02-12T03:54:17.056Z,7.13
2023-02-12T03:56:56.993Z,6.63
2023-02-12T03:59:25.547Z,7.95
2023-02-12T04:01:56.361Z,7.20
2023-02-12T04:04:25.485Z,6.63
2023-02-12T04:06:54.302Z,6.65
2023-02-12T04:09:24.860Z,6.53
2023-02-12T04:12:53.652Z,6.28
2023-02-12T04:16:07.635Z,6.78
2023-02-12T04:18:49.472Z,6.10
2023-02-12T04:21:45.842Z,7.32
2023-02-12T04:24:51.146Z,6.33
2023-02-12T04:27:35.453Z,6.68
2023-02-12T04:30:44.797Z,6.60
2023-02-12T04:33:19.022Z,6.07
2023-02-12T04:35:55.621Z,7.70
2023-02-12T04:38:43.457Z,7.33
2023-02-12T04:41:10.891Z,6.75
2023-02-12T04:43:38.518Z,7.35
2023-02-12T04:46:08.232Z,7.22
2023-02-12T04:48:44.092Z,6.95
2023-02-12T04:51:11.297Z,8.07
2023-02-12T04:53:38.442Z,7.30
2023-02-12T04:56:06.204Z,6.15
2023-02-12T04:58:33.362Z,7.15
2023-02-12T05:01:00.543Z,7.50
2023-02-12T05:03:27.698Z,7.50
2023-02-12T05:05:55.220Z,7.57
2023-02-12T05:08:22.587Z,7.10
2023-02-12T05:10:49.728Z,7.35
2023-02-12T05:13:16.870Z,8.23
2023-02-12T05:15:43.927Z,7.47
2023-02-12T05:18:11.077Z,7.25
2023-02-12T05:20:38.182Z,6.85
2023-02-12T05:23:05.333Z,7.07
2023-02-12T05:25:32.455Z,7.38
2023-02-12T05:28:00.160Z,7.57
2023-02-12T05:30:27.488Z,7.07
2023-02-12T05:32:54.944Z,7.97
2023-02-12T05:35:21.987Z,7.68
2023-02-12T05:37:49.108Z,8.73
2023-02-12T05:40:16.654Z,8.13
2023-02-12T05:42:43.781Z,8.38
2023-02-12T05:45:10.873Z,8.10
2023-02-12T05:47:38.065Z,8.35
2023-02-12T05:50:06.010Z,8.00
2023-02-12T05:52:34.206Z,8.60
2023-02-12T05:55:01.323Z,8.00
2023-02-12T05:57:28.467Z,7.72
2023-02-12T05:59:55.620Z,8.27
2023-02-12T06:02:22.860Z,8.77
2023-02-12T06:04:49.979Z,9.67
2023-02-12T06:07:17.122Z,8.23
2023-02-12T06:09:44.365Z,8.40
2023-02-12T06:12:11.437Z,8.98
2023-02-12T06:14:41.798Z,8.27
2023-02-12T06:17:09.254Z,7.40
2023-02-12T06:19:37.274Z,8.00
2023-02-12T06:22:04.510Z,8.13
2023-02-12T06:24:31.641Z,9.50
2023-02-12T06:26:58.817Z,8.35
2023-02-12T06:29:25.976Z,8.57
2023-02-12T06:31:53.206Z,8.90
2023-02-12T06:34:20.400Z,8.00
2023-02-12T06:36:48.339Z,8.27
2023-02-12T06:39:17.698Z,10.15
2023-02-12T06:41:45.241Z,8.53
2023-02-12T06:44:13.169Z,10.00
2023-02-12T06:46:40.512Z,8.50
2023-02-12T06:49:08.437Z,9.38
2023-02-12T06:51:38.278Z,8.45
2023-02-12T06:54:05.577Z,9.53
2023-02-12T06:56:32.666Z,9.32
2023-02-12T06:59:01.380Z,9.68
2023-02-12T07:01:30.570Z,8.77
2023-02-12T07:04:02.201Z,9.40
2023-02-12T07:06:32.613Z,9.03
2023-02-12T07:09:00.039Z,8.60
2023-02-12T07:11:31.888Z,8.95
2023-02-12T07:13:59.174Z,8.32
2023-02-12T07:16:27.217Z,9.15
2023-02-12T07:18:54.703Z,10.20
2023-02-12T07:21:22.536Z,9.88
2023-02-12T07:23:52.450Z,8.82
2023-02-12T07:26:21.722Z,9.88
2023-02-12T07:28:50.497Z,8.93
2023-02-12T07:31:23.517Z,10.17
2023-02-12T07:33:56.216Z,9.32
2023-02-12T07:36:25.547Z,9.68
2023-02-12T07:38:54.383Z,9.13
2023-02-12T07:41:27.939Z,8.65
2023-02-12T07:44:21.429Z,9.07
2023-02-12T07:46:49.617Z,9.82
2023-02-12T07:49:21.469Z,9.05
2023-02-12T07:51:49.962Z,10.07
2023-02-12T07:54:17.364Z,8.93
2023-02-12T07:56:47.111Z,9.50
2023-02-12T07:59:17.708Z,9.43
2023-02-12T08:01:51.271Z,9.00
2023-02-12T08:04:22.373Z,9.50
2023-02-12T08:06:52.221Z,9.23
2023-02-12T08:09:26.400Z,9.60
2023-02-12T08:11:53.848Z,9.07
2023-02-12T08:14:22.616Z,9.30
2023-02-12T08:16:50.855Z,9.68
2023-02-12T08:19:23.308Z,9.48
2023-02-12T08:21:54.078Z,9.70
2023-02-12T08:24:24.548Z,9.15
2023-02-12T08:26:52.427Z,9.00
2023-02-12T08:29:29.929Z,9.30
2023-02-12T08:32:01.106Z,9.75
2023-02-12T08:34:34.898Z,9.97
2023-02-12T08:37:05.106Z,9.30
2023-02-12T08:39:32.544Z,10.05
2023-02-12T08:42:01.768Z,9.45
2023-02-12T08:44:29.406Z,9.90
2023-02-12T08:46:56.568Z,8.80
2023-02-12T08:49:27.525Z,10.00
2023-02-12T08:51:57.320Z,10.25
2023-02-12T08:54:27.490Z,10.63
2023-02-12T08:57:02.581Z,11.27
2023-02-12T08:59:30.287Z,9.50
2023-02-12T09:01:57.440Z,11.50
2023-02-12T09:04:28.400Z,11.30
2023-02-12T09:06:56.319Z,11.10
2023-02-12T09:09:23.485Z,10.18
2023-02-12T09:11:50.746Z,10.03
2023-02-12T09:14:23.743Z,10.20
2023-02-12T09:16:53.215Z,10.45
2023-02-12T09:19:20.722Z,10.18
2023-02-12T09:21:55.505Z,11.02
2023-02-12T09:24:23.676Z,10.23
2023-02-12T09:26:53.894Z,10.82
2023-02-12T09:29:21.038Z,11.38
2023-02-12T09:31:48.352Z,12.02
2023-02-12T09:34:15.541Z,11.50
2023-02-12T09:36:42.668Z,10.70
2023-02-12T09:39:09.841Z,10.70
2023-02-12T09:41:58.798Z,10.18
2023-02-12T09:44:25.901Z,8.90
2023-02-12T09:47:15.792Z,9.70
2023-02-12T09:50:34.216Z,8.90
2023-02-12T09:53:02.011Z,8.75
2023-02-12T09:55:35.168Z,9.88
2023-02-12T09:58:13.168Z,8.32
2023-02-12T10:00:40.536Z,9.45
2023-02-12T10:03:16.375Z,8.83
2023-02-12T10:06:06.852Z,8.88
2023-02-12T10:09:11.691Z,8.35
2023-02-12T10:11:48.520Z,8.52
2023-02-12T10:14:30.590Z,8.60
2023-02-12T10:17:32.436Z,8.33
2023-02-12T10:20:41.153Z,9.50
2023-02-12T10:23:34.635Z,9.20
2023-02-12T10:26:21.890Z,8.07
2023-02-12T10:28:51.814Z,8.95
2023-02-12T10:31:37.626Z,8.77
2023-02-12T10:34:19.689Z,8.20
2023-02-12T10:36:50.166Z,8.25
2023-02-12T10:39:27.892Z,8.52
2023-02-12T10:42:17.142Z,9.18
2023-02-12T10:44:44.498Z,9.10
2023-02-12T10:47:21.656Z,8.85
2023-02-12T10:50:37.568Z,9.13
2023-02-12T10:53:04.743Z,8.32
2023-02-12T10:55:34.392Z,8.77
2023-02-12T10:58:04.862Z,8.97
2023-02-12T11:00:39.379Z,8.95
2023-02-12T11:03:12.202Z,9.25
2023-02-12T11:05:43.235Z,8.90
2023-02-12T11:08:32.040Z,8.65
2023-02-12T11:11:20.742Z,7.63
2023-02-12T11:14:00.307Z,8.02
2023-02-12T11:16:35.110Z,8.85
2023-02-12T11:19:08.945Z,8.65
2023-02-12T11:21:36.594Z,9.18
2023-02-12T11:24:32.156Z,8.23
2023-02-12T11:27:24.137Z,8.45
2023-02-12T11:30:10.291Z,8.23
2023-02-12T11:32:38.057Z,8.38
2023-02-12T11:35:25.038Z,7.97
2023-02-12T11:38:00.151Z,8.60
2023-02-12T11:40:37.185Z,7.97
2023-02-12T11:43:08.427Z,8.85
2023-02-12T11:45:50.611Z,8.52
2023-02-12T11:48:41.620Z,8.73
2023-02-12T11:51:19.380Z,8.00
2023-02-12T11:53:52.135Z,9.40
2023-02-12T11:56:20.350Z,9.27
2023-02-12T11:58:51.121Z,9.23
2023-02-12T12:01:34.429Z,8.45
2023-02-12T12:04:13.614Z,8.67
2023-02-12T12:07:08.702Z,9.10
2023-02-12T12:09:41.088Z,8.02
2023-02-12T12:12:26.155Z,8.35
2023-02-12T12:15:53.411Z,6.78
2023-02-12T12:18:48.261Z,7.70
2023-02-12T12:21:58.974Z,7.88
2023-02-12T12:25:12.844Z,7.45
2023-02-12T12:28:04.182Z,8.55
2023-02-12T12:30:56.168Z,8.13
2023-02-12T12:33:59.350Z,7.37
2023-02-12T12:36:58.548Z,7.07
2023-02-12T12:39:52.947Z,7.20
2023-02-12T12:43:06.798Z,7.03
2023-02-12T12:46:16.781Z,7.38
2023-02-12T12:48:53.708Z,6.80
2023-02-12T12:52:12.178Z,7.07
2023-02-12T12:54:59.440Z,6.75
2023-02-12T12:58:36.245Z,6.60
2023-02-12T13:01:38.346Z,6.03
2023-02-12T13:04:48.786Z,5.97
2023-02-12T13:07:58.912Z,6.40
2023-02-12T13:11:23.383Z,6.20
2023-02-12T13:13:59.528Z,6.50
2023-02-12T13:16:33.616Z,7.13
2023-02-12T13:19:22.721Z,7.00
2023-02-12T13:22:08.606Z,8.00
2023-02-12T13:25:04.474Z,6.78
2023-02-12T13:27:37.050Z,6.68
2023-02-12T13:30:24.108Z,6.30
2023-02-12T13:33:10.602Z,6.93
2023-02-12T13:35:43.732Z,6.25
2023-02-12T13:38:22.802Z,6.78
2023-02-12T13:41:01.311Z,6.88
2023-02-12T13:43:57.388Z,6.60
2023-02-12T13:46:58.452Z,7.17
2023-02-12T13:49:54.090Z,7.43
2023-02-12T13:53:17.533Z,8.35
2023-02-12T13:56:27.884Z,5.78
2023-02-12T13:59:00.274Z,6.60
2023-02-12T14:01:57.344Z,6.83
2023-02-12T14:04:56.784Z,7.70
2023-02-12T14:07:25.623Z,8.43
2023-02-12T14:09:52.776Z,9.88
2023-02-12T14:12:26.057Z,7.43
2023-02-12T14:15:10.303Z,7.33
2023-02-12T14:17:37.339Z,8.38
2023-02-12T14:20:30.400Z,7.50
2023-02-12T14:23:03.912Z,8.23
2023-02-12T14:25:41.643Z,7.75
2023-02-12T14:28:29.122Z,11.33
2023-02-12T14:31:36.465Z,8.38
2023-02-12T14:34:06.849Z,7.45
2023-02-12T14:36:38.838Z,8.18
2023-02-12T14:39:29.992Z,6.70
2023-02-12T14:42:17.002Z,8.13
2023-02-12T14:44:57.845Z,10.00
2023-02-12T14:47:31.216Z,8.75
2023-02-12T14:50:07.179Z,9.23
2023-02-12T14:52:41.127Z,11.73
2023-02-12T14:55:28.226Z,9.53
2023-02-12T14:58:00.509Z,7.93
2023-02-12T15:00:36.971Z,9.43
2023-02-12T15:03:13.320Z,12.43
2023-02-12T15:05:54.697Z,10.07
2023-02-12T15:08:44.333Z,9.13
2023-02-12T15:11:33.537Z,9.25
2023-02-12T15:14:11.525Z,8.32
2023-02-12T15:17:28.049Z,9.20
2023-02-12T15:20:17.213Z,7.32
2023-02-12T15:22:44.401Z,9.00
2023-02-12T15:25:32.628Z,8.45
2023-02-12T15:28:26.015Z,10.10
2023-02-12T15:30:54.732Z,9.18
2023-02-12T15:33:30.207Z,9.55
2023-02-12T15:35:58.482Z,9.87
2023-02-12T15:38:52.822Z,8.30
2023-02-12T15:41:36.731Z,9.68
2023-02-12T15:44:32.222Z,9.20
2023-02-12T15:47:17.266Z,8.45
2023-02-12T15:49:44.596Z,9.40
2023-02-12T15:52:24.764Z,8.73
2023-02-12T15:54:52.534Z,8.40
2023-02-12T15:57:24.116Z,9.35
2023-02-12T15:59:57.570Z,10.75
2023-02-12T16:02:33.043Z,14.53
2023-02-12T16:05:03.527Z,14.02
2023-02-12T16:07:36.281Z,11.23
2023-02-12T16:10:04.991Z,9.63
2023-02-12T16:12:36.907Z,9.40
2023-02-12T16:15:05.448Z,10.80
2023-02-12T16:17:37.084Z,10.18
2023-02-12T16:20:22.349Z,11.40
2023-02-12T16:22:52.127Z,9.85
2023-02-12T16:25:31.988Z,9.68
2023-02-12T16:28:18.785Z,10.20
2023-02-12T16:30:48.526Z,10.27
2023-02-12T16:33:45.474Z,11.95
2023-02-12T16:36:24.288Z,9.88
2023-02-12T16:39:00.594Z,10.60
2023-02-12T16:41:52.671Z,10.20
2023-02-12T16:44:29.508Z,13.32
2023-02-12T16:47:00.782Z,10.15
2023-02-12T16:49:28.655Z,11.40
2023-02-12T16:52:25.058Z,9.88
2023-02-12T16:54:52.142Z,8.83
2023-02-12T16:57:19.231Z,9.68
2023-02-12T16:59:46.350Z,11.20
2023-02-12T17:02:15.697Z,8.65
2023-02-12T17:04:44.217Z,9.88
2023-02-12T17:07:31.675Z,13.33
2023-02-12T17:09:58.859Z,9.45
2023-02-12T17:12:26.991Z,9.63
2023-02-12T17:14:55.814Z,13.77
2023-02-12T17:17:22.916Z,11.35
2023-02-12T17:19:50.039Z,10.53
2023-02-12T17:22:26.377Z,11.55
2023-02-12T17:24:54.420Z,11.13
2023-02-12T17:27:21.530Z,10.68
2023-02-12T17:29:48.707Z,12.15
2023-02-12T17:32:16.337Z,10.83
2023-02-12T17:34:48.708Z,12.10
2023-02-12T17:37:18.243Z,13.35
2023-02-12T17:39:45.646Z,11.63
2023-02-12T17:42:12.764Z,14.18
2023-02-12T17:44:40.215Z,21.30
2023-02-12T17:47:07.451Z,14.45
2023-02-12T17:49:35.600Z,14.15
2023-02-12T17:52:04.765Z,12.95
2023-02-12T17:54:33.683Z,13.57
2023-02-12T17:57:00.738Z,21.00
2023-02-12T17:59:27.918Z,13.77
2023-02-12T18:01:55.345Z,15.05
2023-02-12T18:04:22.575Z,12.80
2023-02-12T18:06:49.717Z,12.55
2023-02-12T18:09:16.876Z,13.43
2023-02-12T18:11:44.100Z,15.52
2023-02-12T18:14:12.017Z,13.77
2023-02-12T18:16:39.225Z,13.98
2023-02-12T18:19:07.110Z,14.25
2023-02-12T18:21:35.078Z,13.37
2023-02-12T18:24:02.737Z,15.30
2023-02-12T18:26:29.883Z,12.90
2023-02-12T18:28:58.680Z,14.02
2023-02-12T18:31:26.975Z,12.77
2023-02-12T18:33:54.643Z,13.97
2023-02-12T18:36:23.092Z,13.80
2023-02-12T18:38:51.815Z,14.43
2023-02-12T18:41:25.945Z,12.95
2023-02-12T18:43:53.424Z,18.50
2023-02-12T18:46:24.863Z,16.30
2023-02-12T18:48:53.018Z,17.02
2023-02-12T18:51:25.511Z,15.95
2023-02-12T18:54:01.438Z,17.35
2023-02-12T18:56:31.004Z,15.85
2023-02-12T18:59:00.195Z,14.20
2023-02-12T19:01:28.598Z,17.75
2023-02-12T19:04:00.069Z,13.05
2023-02-12T19:06:29.424Z,13.60
2023-02-12T19:09:03.316Z,13.70
2023-02-12T19:11:31.760Z,14.17
2023-02-12T19:13:59.333Z,14.75
2023-02-12T19:16:27.194Z,15.70
2023-02-12T19:18:58.404Z,16.35
2023-02-12T19:21:28.544Z,14.07
2023-02-12T19:23:58.625Z,17.93
2023-02-12T19:26:28.001Z,15.63
2023-02-12T19:28:56.686Z,13.70
2023-02-12T19:31:31.255Z,15.10
2023-02-12T19:34:06.284Z,13.40
2023-02-12T19:36:36.319Z,14.97
2023-02-12T19:39:06.011Z,15.10
2023-02-12T19:41:40.909Z,12.98
2023-02-12T19:44:19.352Z,13.00
2023-02-12T19:46:47.796Z,13.98
2023-02-12T19:49:22.566Z,13.77
2023-02-12T19:51:50.052Z,12.55
2023-02-12T19:54:19.466Z,11.98
2023-02-12T19:56:47.598Z,13.60
2023-02-12T19:59:17.940Z,13.27
2023-02-12T20:01:46.511Z,13.07
2023-02-12T20:04:16.403Z,13.45
2023-02-12T20:06:45.876Z,13.90
2023-02-12T20:09:14.172Z,13.48
2023-02-12T20:11:41.726Z,14.00
2023-02-12T20:14:12.751Z,14.57
2023-02-12T20:16:43.762Z,15.23
2023-02-12T20:19:24.282Z,14.65
2023-02-12T20:21:56.647Z,15.50
2023-02-12T20:24:30.440Z,15.32
2023-02-12T20:27:00.341Z,15.60
2023-02-12T20:29:28.824Z,14.38
2023-02-12T20:31:56.187Z,13.68
2023-02-12T20:34:23.726Z,13.27
2023-02-12T20:36:50.898Z,14.15
2023-02-12T20:39:20.037Z,13.73
2023-02-12T20:41:47.859Z,13.85
2023-02-12T20:44:20.032Z,14.25
2023-02-12T20:46:55.908Z,16.30
2023-02-12T20:49:25.577Z,16.48
2023-02-12T20:51:53.150Z,14.67
2023-02-12T20:54:20.485Z,15.55
2023-02-12T20:56:50.715Z,14.20
2023-02-12T20:59:19.039Z,15.60
2023-02-12T21:01:47.071Z,15.18
2023-02-12T21:04:16.898Z,15.93
2023-02-12T21:06:45.625Z,15.60
2023-02-12T21:09:14.781Z,15.10
2023-02-12T21:11:45.604Z,16.80
2023-02-12T21:14:23.559Z,14.43
2023-02-12T21:16:54.337Z,15.43
2023-02-12T21:19:22.371Z,16.35
2023-02-12T21:21:49.741Z,15.35
2023-02-12T21:24:23.840Z,15.30
2023-02-12T21:26:54.403Z,15.25
2023-02-12T21:29:22.400Z,14.60
2023-02-12T21:31:51.332Z,14.75
2023-02-12T21:34:21.918Z,13.40
2023-02-12T21:36:50.777Z,14.05
2023-02-12T21:39:27.216Z,14.57
2023-02-12T21:42:02.387Z,14.50
2023-02-12T21:44:32.256Z,13.75
2023-02-12T21:46:59.869Z,15.00
2023-02-12T21:49:30.051Z,15.07
2023-02-12T21:52:03.725Z,15.77
2023-02-12T21:54:31.435Z,15.33
2023-02-12T21:56:59.743Z,15.98
2023-02-12T21:59:29.492Z,15.07
2023-02-12T22:01:59.084Z,15.68
2023-02-12T22:04:26.911Z,13.70
2023-02-12T22:06:54.651Z,15.13
2023-02-12T22:09:24.456Z,12.75
2023-02-12T22:11:52.526Z,13.68
2023-02-12T22:14:21.312Z,13.70
2023-02-12T22:16:48.910Z,14.15
2023-02-12T22:19:16.178Z,13.47
2023-02-12T22:21:44.410Z,16.67
2023-02-12T22:24:15.700Z,14.43
2023-02-12T22:26:44.066Z,13.75
2023-02-12T22:29:15.159Z,14.55
2023-02-12T22:31:44.584Z,13.50
2023-02-12T22:34:17.138Z,12.73
2023-02-12T22:36:45.221Z,13.50
2023-02-12T22:39:14.372Z,13.85
2023-02-12T22:41:42.650Z,13.90
2023-02-12T22:44:12.879Z,14.73
2023-02-12T22:46:42.087Z,14.77
2023-02-12T22:49:09.465Z,13.43
2023-02-12T22:51:39.063Z,15.85
2023-02-12T22:54:09.659Z,14.27
2023-02-12T22:56:37.002Z,14.63
2023-02-12T22:59:04.288Z,13.48
2023-02-12T23:01:31.751Z,15.15
2023-02-12T23:03:59.288Z,14.05
2023-02-12T23:06:29.940Z,14.45
2023-02-12T23:09:04.219Z,15.38
2023-02-12T23:11:33.425Z,15.13
2023-02-12T23:14:00.638Z,14.32
2023-02-12T23:16:28.372Z,14.23
2023-02-12T23:19:01.322Z,15.57
2023-02-12T23:21:30.533Z,13.98
2023-02-12T23:24:01.480Z,14.40
2023-02-12T23:26:30.033Z,15.90
2023-02-12T23:28:58.342Z,13.65
2023-02-12T23:31:26.087Z,13.18
2023-02-12T23:33:53.493Z,13.10
2023-02-12T23:36:20.652Z,12.68
2023-02-12T23:38:47.769Z,13.15
2023-02-12T23:41:14.893Z,14.40
2023-02-12T23:43:42.037Z,14.20
2023-02-12T23:46:09.666Z,14.73
2023-02-12T23:48:37.018Z,14.45
2023-02-12T23:51:04.781Z,13.60
2023-02-12T23:53:31.874Z,13.57
2023-02-12T23:55:58.988Z,14.20
2023-02-12T23:58:26.258Z,15.35
